sensor_id;sensor_type;location;lat;lon;timestamp;temperature;humidity
64034;SHT31;50280;49.864;8.638;2022-12-04T00:01:04;2.61;82.31
64034;SHT31;50280;49.864;8.638;2022-12-04T00:03:38;2.58;82.28
64034;SHT31;50280;49.864;8.638;2022-12-04T00:06:14;2.60;82.22
64034;SHT31;50280;49.864;8.638;2022-12-04T00:08:50;2.60;82.45
64034;SHT31;50280;49.864;8.638;2022-12-04T00:11:25;2.58;82.63
64034;SHT31;50280;49.864;8.638;2022-12-04T00:14:01;2.58;82.52
64034;SHT31;50280;49.864;8.638;2022-12-04T00:16:34;2.57;82.52
64034;SHT31;50280;49.864;8.638;2022-12-04T00:19:06;2.58;82.51
64034;SHT31;50280;49.864;8.638;2022-12-04T00:21:40;2.57;82.58
64034;SHT31;50280;49.864;8.638;2022-12-04T00:24:12;2.57;82.47
64034;SHT31;50280;49.864;8.638;2022-12-04T00:26:45;2.58;82.20
64034;SHT31;50280;49.864;8.638;2022-12-04T00:29:17;2.57;81.99
64034;SHT31;50280;49.864;8.638;2022-12-04T00:31:50;2.54;81.84
64034;SHT31;50280;49.864;8.638;2022-12-04T00:34:22;2.54;81.99
64034;SHT31;50280;49.864;8.638;2022-12-04T00:36:56;2.53;82.11
64034;SHT31;50280;49.864;8.638;2022-12-04T00:39:28;2.52;82.29
64034;SHT31;50280;49.864;8.638;2022-12-04T00:42:01;2.52;82.38
64034;SHT31;50280;49.864;8.638;2022-12-04T00:44:33;2.49;82.31
64034;SHT31;50280;49.864;8.638;2022-12-04T00:47:05;2.53;82.41
64034;SHT31;50280;49.864;8.638;2022-12-04T00:49:38;2.52;82.57
64034;SHT31;50280;49.864;8.638;2022-12-04T00:52:11;2.52;82.59
64034;SHT31;50280;49.864;8.638;2022-12-04T00:54:44;2.50;82.66
64034;SHT31;50280;49.864;8.638;2022-12-04T00:57:16;2.52;82.79
64034;SHT31;50280;49.864;8.638;2022-12-04T00:59:49;2.52;82.61
64034;SHT31;50280;49.864;8.638;2022-12-04T01:02:21;2.50;82.65
64034;SHT31;50280;49.864;8.638;2022-12-04T01:04:54;2.50;82.56
64034;SHT31;50280;49.864;8.638;2022-12-04T01:07:28;2.49;82.57
64034;SHT31;50280;49.864;8.638;2022-12-04T01:10:00;2.47;82.56
64034;SHT31;50280;49.864;8.638;2022-12-04T01:12:33;2.46;82.96
64034;SHT31;50280;49.864;8.638;2022-12-04T01:15:06;2.47;82.97
64034;SHT31;50280;49.864;8.638;2022-12-04T01:17:40;2.49;82.97
64034;SHT31;50280;49.864;8.638;2022-12-04T01:20:13;2.49;83.02
64034;SHT31;50280;49.864;8.638;2022-12-04T01:22:48;2.49;82.97
64034;SHT31;50280;49.864;8.638;2022-12-04T01:25:21;2.50;82.84
64034;SHT31;50280;49.864;8.638;2022-12-04T01:27:53;2.49;82.91
64034;SHT31;50280;49.864;8.638;2022-12-04T01:30:25;2.50;82.90
64034;SHT31;50280;49.864;8.638;2022-12-04T01:32:58;2.47;82.76
64034;SHT31;50280;49.864;8.638;2022-12-04T01:35:31;2.49;82.79
64034;SHT31;50280;49.864;8.638;2022-12-04T01:38:04;2.45;82.66
64034;SHT31;50280;49.864;8.638;2022-12-04T01:40:42;2.43;82.63
64034;SHT31;50280;49.864;8.638;2022-12-04T01:43:16;2.42;82.75
64034;SHT31;50280;49.864;8.638;2022-12-04T01:45:52;2.42;82.63
64034;SHT31;50280;49.864;8.638;2022-12-04T01:48:27;2.42;82.67
64034;SHT31;50280;49.864;8.638;2022-12-04T01:51:06;2.42;82.57
64034;SHT31;50280;49.864;8.638;2022-12-04T01:53:50;2.37;82.40
64034;SHT31;50280;49.864;8.638;2022-12-04T01:56:30;2.39;82.37
64034;SHT31;50280;49.864;8.638;2022-12-04T01:59:11;2.39;82.38
64034;SHT31;50280;49.864;8.638;2022-12-04T02:01:53;2.40;82.58
64034;SHT31;50280;49.864;8.638;2022-12-04T02:04:33;2.39;82.73
64034;SHT31;50280;49.864;8.638;2022-12-04T02:07:07;2.42;82.74
64034;SHT31;50280;49.864;8.638;2022-12-04T02:09:42;2.42;82.87
64034;SHT31;50280;49.864;8.638;2022-12-04T02:12:20;2.40;82.73
64034;SHT31;50280;49.864;8.638;2022-12-04T02:15:08;2.40;82.36
64034;SHT31;50280;49.864;8.638;2022-12-04T02:17:53;2.39;82.72
64034;SHT31;50280;49.864;8.638;2022-12-04T02:20:37;2.40;82.41
64034;SHT31;50280;49.864;8.638;2022-12-04T02:23:32;2.42;82.23
64034;SHT31;50280;49.864;8.638;2022-12-04T02:26:28;2.42;82.49
64034;SHT31;50280;49.864;8.638;2022-12-04T02:29:22;2.39;82.26
64034;SHT31;50280;49.864;8.638;2022-12-04T02:32:14;2.42;82.34
64034;SHT31;50280;49.864;8.638;2022-12-04T02:34:56;2.40;82.32
64034;SHT31;50280;49.864;8.638;2022-12-04T02:37:36;2.39;82.43
64034;SHT31;50280;49.864;8.638;2022-12-04T02:40:19;2.40;82.56
64034;SHT31;50280;49.864;8.638;2022-12-04T02:43:00;2.43;82.31
64034;SHT31;50280;49.864;8.638;2022-12-04T02:45:46;2.37;82.36
64034;SHT31;50280;49.864;8.638;2022-12-04T02:48:30;2.42;82.57
64034;SHT31;50280;49.864;8.638;2022-12-04T02:51:10;2.42;82.66
64034;SHT31;50280;49.864;8.638;2022-12-04T02:53:49;2.43;82.91
64034;SHT31;50280;49.864;8.638;2022-12-04T02:56:29;2.42;82.68
64034;SHT31;50280;49.864;8.638;2022-12-04T02:59:14;2.40;82.69
64034;SHT31;50280;49.864;8.638;2022-12-04T03:01:58;2.42;82.81
64034;SHT31;50280;49.864;8.638;2022-12-04T03:04:41;2.42;82.82
64034;SHT31;50280;49.864;8.638;2022-12-04T03:07:19;2.46;82.65
64034;SHT31;50280;49.864;8.638;2022-12-04T03:10:00;2.45;82.66
64034;SHT31;50280;49.864;8.638;2022-12-04T03:12:43;2.43;82.56
64034;SHT31;50280;49.864;8.638;2022-12-04T03:15:28;2.45;82.53
64034;SHT31;50280;49.864;8.638;2022-12-04T03:18:13;2.43;82.51
64034;SHT31;50280;49.864;8.638;2022-12-04T03:20:58;2.45;82.39
64034;SHT31;50280;49.864;8.638;2022-12-04T03:23:41;2.45;82.55
64034;SHT31;50280;49.864;8.638;2022-12-04T03:26:24;2.43;82.58
64034;SHT31;50280;49.864;8.638;2022-12-04T03:29:08;2.45;82.76
64034;SHT31;50280;49.864;8.638;2022-12-04T03:31:49;2.45;82.95
64034;SHT31;50280;49.864;8.638;2022-12-04T03:34:38;2.45;82.97
64034;SHT31;50280;49.864;8.638;2022-12-04T03:37:25;2.46;82.92
64034;SHT31;50280;49.864;8.638;2022-12-04T03:40:13;2.47;82.90
64034;SHT31;50280;49.864;8.638;2022-12-04T03:42:56;2.47;82.87
64034;SHT31;50280;49.864;8.638;2022-12-04T03:45:40;2.46;83.02
64034;SHT31;50280;49.864;8.638;2022-12-04T03:48:20;2.47;82.96
64034;SHT31;50280;49.864;8.638;2022-12-04T03:51:00;2.47;83.02
64034;SHT31;50280;49.864;8.638;2022-12-04T03:53:42;2.47;82.94
64034;SHT31;50280;49.864;8.638;2022-12-04T03:56:27;2.45;83.02
64034;SHT31;50280;49.864;8.638;2022-12-04T03:59:08;2.45;83.01
64034;SHT31;50280;49.864;8.638;2022-12-04T04:01:48;2.46;83.17
64034;SHT31;50280;49.864;8.638;2022-12-04T04:04:30;2.45;83.29
64034;SHT31;50280;49.864;8.638;2022-12-04T04:07:10;2.49;83.30
64034;SHT31;50280;49.864;8.638;2022-12-04T04:09:55;2.47;83.15
64034;SHT31;50280;49.864;8.638;2022-12-04T04:12:37;2.49;83.16
64034;SHT31;50280;49.864;8.638;2022-12-04T04:15:16;2.46;83.26
64034;SHT31;50280;49.864;8.638;2022-12-04T04:17:50;2.49;83.47
64034;SHT31;50280;49.864;8.638;2022-12-04T04:20:31;2.49;83.62
64034;SHT31;50280;49.864;8.638;2022-12-04T04:23:13;2.49;83.68
64034;SHT31;50280;49.864;8.638;2022-12-04T04:25:52;2.49;83.60
64034;SHT31;50280;49.864;8.638;2022-12-04T04:28:30;2.47;83.46
64034;SHT31;50280;49.864;8.638;2022-12-04T04:31:09;2.49;83.42
64034;SHT31;50280;49.864;8.638;2022-12-04T04:33:58;2.49;83.45
64034;SHT31;50280;49.864;8.638;2022-12-04T04:36:52;2.53;83.52
64034;SHT31;50280;49.864;8.638;2022-12-04T04:39:37;2.52;83.53
64034;SHT31;50280;49.864;8.638;2022-12-04T04:42:21;2.52;83.26
64034;SHT31;50280;49.864;8.638;2022-12-04T04:45:04;2.50;83.52
64034;SHT31;50280;49.864;8.638;2022-12-04T04:47:46;2.52;83.66
64034;SHT31;50280;49.864;8.638;2022-12-04T04:50:25;2.52;83.51
64034;SHT31;50280;49.864;8.638;2022-12-04T04:53:03;2.53;83.42
64034;SHT31;50280;49.864;8.638;2022-12-04T04:55:44;2.54;83.55
64034;SHT31;50280;49.864;8.638;2022-12-04T04:58:19;2.54;83.51
64034;SHT31;50280;49.864;8.638;2022-12-04T05:00:56;2.56;83.47
64034;SHT31;50280;49.864;8.638;2022-12-04T05:03:31;2.57;83.53
64034;SHT31;50280;49.864;8.638;2022-12-04T05:06:04;2.57;83.49
64034;SHT31;50280;49.864;8.638;2022-12-04T05:08:36;2.57;83.48
64034;SHT31;50280;49.864;8.638;2022-12-04T05:11:13;2.57;83.41
64034;SHT31;50280;49.864;8.638;2022-12-04T05:13:47;2.60;83.51
64034;SHT31;50280;49.864;8.638;2022-12-04T05:16:19;2.57;83.54
64034;SHT31;50280;49.864;8.638;2022-12-04T05:18:52;2.57;83.72
64034;SHT31;50280;49.864;8.638;2022-12-04T05:21:24;2.58;83.72
64034;SHT31;50280;49.864;8.638;2022-12-04T05:23:57;2.58;83.76
64034;SHT31;50280;49.864;8.638;2022-12-04T05:26:30;2.57;83.51
64034;SHT31;50280;49.864;8.638;2022-12-04T05:29:03;2.53;83.75
64034;SHT31;50280;49.864;8.638;2022-12-04T05:31:35;2.56;83.83
64034;SHT31;50280;49.864;8.638;2022-12-04T05:34:07;2.56;83.82
64034;SHT31;50280;49.864;8.638;2022-12-04T05:36:40;2.58;83.92
64034;SHT31;50280;49.864;8.638;2022-12-04T05:39:12;2.57;84.05
64034;SHT31;50280;49.864;8.638;2022-12-04T05:41:46;2.58;84.10
64034;SHT31;50280;49.864;8.638;2022-12-04T05:44:19;2.60;83.99
64034;SHT31;50280;49.864;8.638;2022-12-04T05:46:51;2.60;83.92
64034;SHT31;50280;49.864;8.638;2022-12-04T05:49:24;2.60;83.93
64034;SHT31;50280;49.864;8.638;2022-12-04T05:52:01;2.60;83.93
64034;SHT31;50280;49.864;8.638;2022-12-04T05:54:36;2.60;84.06
64034;SHT31;50280;49.864;8.638;2022-12-04T05:57:09;2.58;84.18
64034;SHT31;50280;49.864;8.638;2022-12-04T05:59:42;2.58;84.19
64034;SHT31;50280;49.864;8.638;2022-12-04T06:02:14;2.60;84.20
64034;SHT31;50280;49.864;8.638;2022-12-04T06:04:47;2.61;84.20
64034;SHT31;50280;49.864;8.638;2022-12-04T06:07:20;2.60;84.27
64034;SHT31;50280;49.864;8.638;2022-12-04T06:09:53;2.58;84.17
64034;SHT31;50280;49.864;8.638;2022-12-04T06:12:28;2.58;83.99
64034;SHT31;50280;49.864;8.638;2022-12-04T06:15:01;2.57;84.31
64034;SHT31;50280;49.864;8.638;2022-12-04T06:17:33;2.57;84.39
64034;SHT31;50280;49.864;8.638;2022-12-04T06:20:06;2.57;84.45
64034;SHT31;50280;49.864;8.638;2022-12-04T06:22:40;2.56;84.43
64034;SHT31;50280;49.864;8.638;2022-12-04T06:25:12;2.56;84.53
64034;SHT31;50280;49.864;8.638;2022-12-04T06:27:46;2.56;84.60
64034;SHT31;50280;49.864;8.638;2022-12-04T06:30:18;2.54;84.78
64034;SHT31;50280;49.864;8.638;2022-12-04T06:32:51;2.58;84.84
64034;SHT31;50280;49.864;8.638;2022-12-04T06:35:23;2.54;84.95
64034;SHT31;50280;49.864;8.638;2022-12-04T06:37:56;2.54;84.83
64034;SHT31;50280;49.864;8.638;2022-12-04T06:40:28;2.54;84.77
64034;SHT31;50280;49.864;8.638;2022-12-04T06:43:02;2.57;84.89
64034;SHT31;50280;49.864;8.638;2022-12-04T06:45:34;2.57;84.94
64034;SHT31;50280;49.864;8.638;2022-12-04T06:48:06;2.54;84.94
64034;SHT31;50280;49.864;8.638;2022-12-04T06:50:39;2.57;85.10
64034;SHT31;50280;49.864;8.638;2022-12-04T06:53:11;2.54;85.05
64034;SHT31;50280;49.864;8.638;2022-12-04T06:55:46;2.57;85.12
64034;SHT31;50280;49.864;8.638;2022-12-04T06:58:20;2.58;85.09
64034;SHT31;50280;49.864;8.638;2022-12-04T07:00:53;2.58;85.24
64034;SHT31;50280;49.864;8.638;2022-12-04T07:03:27;2.57;85.12
64034;SHT31;50280;49.864;8.638;2022-12-04T07:06:12;2.57;85.13
64034;SHT31;50280;49.864;8.638;2022-12-04T07:08:50;2.57;85.26
64034;SHT31;50280;49.864;8.638;2022-12-04T07:11:25;2.58;85.45
64034;SHT31;50280;49.864;8.638;2022-12-04T07:13:59;2.56;85.31
64034;SHT31;50280;49.864;8.638;2022-12-04T07:16:32;2.56;85.36
64034;SHT31;50280;49.864;8.638;2022-12-04T07:19:06;2.57;85.56
64034;SHT31;50280;49.864;8.638;2022-12-04T07:21:39;2.57;85.43
64034;SHT31;50280;49.864;8.638;2022-12-04T07:24:14;2.57;85.32
64034;SHT31;50280;49.864;8.638;2022-12-04T07:26:48;2.53;85.31
64034;SHT31;50280;49.864;8.638;2022-12-04T07:29:21;2.53;85.28
64034;SHT31;50280;49.864;8.638;2022-12-04T07:31:54;2.54;85.28
64034;SHT31;50280;49.864;8.638;2022-12-04T07:34:26;2.52;85.28
64034;SHT31;50280;49.864;8.638;2022-12-04T07:37:00;2.49;85.19
64034;SHT31;50280;49.864;8.638;2022-12-04T07:39:32;2.46;85.04
64034;SHT31;50280;49.864;8.638;2022-12-04T07:42:04;2.43;85.09
64034;SHT31;50280;49.864;8.638;2022-12-04T07:44:38;2.43;85.04
64034;SHT31;50280;49.864;8.638;2022-12-04T07:47:11;2.40;85.17
64034;SHT31;50280;49.864;8.638;2022-12-04T07:49:43;2.40;85.21
64034;SHT31;50280;49.864;8.638;2022-12-04T07:52:16;2.37;85.13
64034;SHT31;50280;49.864;8.638;2022-12-04T07:54:48;2.35;85.13
64034;SHT31;50280;49.864;8.638;2022-12-04T07:57:20;2.39;85.16
64034;SHT31;50280;49.864;8.638;2022-12-04T07:59:54;2.32;85.21
64034;SHT31;50280;49.864;8.638;2022-12-04T08:02:26;2.30;85.27
64034;SHT31;50280;49.864;8.638;2022-12-04T08:04:59;2.32;85.44
64034;SHT31;50280;49.864;8.638;2022-12-04T08:07:31;2.29;85.56
64034;SHT31;50280;49.864;8.638;2022-12-04T08:10:05;2.33;85.44
64034;SHT31;50280;49.864;8.638;2022-12-04T08:12:38;2.33;85.88
64034;SHT31;50280;49.864;8.638;2022-12-04T08:15:12;2.30;85.52
64034;SHT31;50280;49.864;8.638;2022-12-04T08:17:44;2.33;85.65
64034;SHT31;50280;49.864;8.638;2022-12-04T08:20:17;2.35;85.65
64034;SHT31;50280;49.864;8.638;2022-12-04T08:22:49;2.35;85.62
64034;SHT31;50280;49.864;8.638;2022-12-04T08:25:21;2.33;85.84
64034;SHT31;50280;49.864;8.638;2022-12-04T08:27:54;2.36;85.80
64034;SHT31;50280;49.864;8.638;2022-12-04T08:30:28;2.36;85.67
64034;SHT31;50280;49.864;8.638;2022-12-04T08:33:00;2.36;85.75
64034;SHT31;50280;49.864;8.638;2022-12-04T08:35:33;2.33;85.68
64034;SHT31;50280;49.864;8.638;2022-12-04T08:38:05;2.33;85.93
64034;SHT31;50280;49.864;8.638;2022-12-04T08:40:38;2.35;85.93
64034;SHT31;50280;49.864;8.638;2022-12-04T08:43:10;2.33;85.95
64034;SHT31;50280;49.864;8.638;2022-12-04T08:45:44;2.33;85.85
64034;SHT31;50280;49.864;8.638;2022-12-04T08:48:26;2.35;85.78
64034;SHT31;50280;49.864;8.638;2022-12-04T08:51:00;2.33;85.79
64034;SHT31;50280;49.864;8.638;2022-12-04T08:53:34;2.35;85.84
64034;SHT31;50280;49.864;8.638;2022-12-04T08:56:07;2.30;85.82
64034;SHT31;50280;49.864;8.638;2022-12-04T08:58:39;2.30;85.76
64034;SHT31;50280;49.864;8.638;2022-12-04T09:01:14;2.29;85.93
64034;SHT31;50280;49.864;8.638;2022-12-04T09:03:46;2.32;86.06
64034;SHT31;50280;49.864;8.638;2022-12-04T09:06:20;2.35;86.15
64034;SHT31;50280;49.864;8.638;2022-12-04T09:08:54;2.32;86.04
64034;SHT31;50280;49.864;8.638;2022-12-04T09:11:27;2.32;85.85
64034;SHT31;50280;49.864;8.638;2022-12-04T09:14:00;2.35;85.86
64034;SHT31;50280;49.864;8.638;2022-12-04T09:16:35;2.32;86.02
64034;SHT31;50280;49.864;8.638;2022-12-04T09:19:07;2.35;86.24
64034;SHT31;50280;49.864;8.638;2022-12-04T09:21:40;2.35;86.10
64034;SHT31;50280;49.864;8.638;2022-12-04T09:24:12;2.39;86.14
64034;SHT31;50280;49.864;8.638;2022-12-04T09:26:45;2.43;86.14
64034;SHT31;50280;49.864;8.638;2022-12-04T09:29:17;2.45;85.97
64034;SHT31;50280;49.864;8.638;2022-12-04T09:31:51;2.43;85.92
64034;SHT31;50280;49.864;8.638;2022-12-04T09:34:23;2.46;85.92
64034;SHT31;50280;49.864;8.638;2022-12-04T09:36:56;2.47;85.94
64034;SHT31;50280;49.864;8.638;2022-12-04T09:39:28;2.47;85.91
64034;SHT31;50280;49.864;8.638;2022-12-04T09:42:21;2.50;85.93
64034;SHT31;50280;49.864;8.638;2022-12-04T09:45:11;2.49;85.67
64034;SHT31;50280;49.864;8.638;2022-12-04T09:47:51;2.50;85.59
64034;SHT31;50280;49.864;8.638;2022-12-04T09:50:34;2.52;85.56
64034;SHT31;50280;49.864;8.638;2022-12-04T09:53:16;2.50;85.64
64034;SHT31;50280;49.864;8.638;2022-12-04T09:56:00;2.50;85.79
64034;SHT31;50280;49.864;8.638;2022-12-04T09:58:40;2.49;85.74
64034;SHT31;50280;49.864;8.638;2022-12-04T10:01:23;2.52;85.76
64034;SHT31;50280;49.864;8.638;2022-12-04T10:04:02;2.52;85.82
64034;SHT31;50280;49.864;8.638;2022-12-04T10:06:37;2.54;85.90
64034;SHT31;50280;49.864;8.638;2022-12-04T10:09:20;2.56;86.03
64034;SHT31;50280;49.864;8.638;2022-12-04T10:12:04;2.60;86.26
64034;SHT31;50280;49.864;8.638;2022-12-04T10:15:04;2.58;86.01
64034;SHT31;50280;49.864;8.638;2022-12-04T10:17:56;2.64;86.10
64034;SHT31;50280;49.864;8.638;2022-12-04T10:21:04;2.65;86.14
64034;SHT31;50280;49.864;8.638;2022-12-04T10:24:04;2.67;85.87
64034;SHT31;50280;49.864;8.638;2022-12-04T10:26:53;2.68;85.81
64034;SHT31;50280;49.864;8.638;2022-12-04T10:29:34;2.71;85.96
64034;SHT31;50280;49.864;8.638;2022-12-04T10:32:17;2.73;86.07
64034;SHT31;50280;49.864;8.638;2022-12-04T10:34:56;2.71;86.00
64034;SHT31;50280;49.864;8.638;2022-12-04T10:37:42;2.76;86.05
64034;SHT31;50280;49.864;8.638;2022-12-04T10:40:21;2.76;85.61
64034;SHT31;50280;49.864;8.638;2022-12-04T10:43:04;2.71;85.59
64034;SHT31;50280;49.864;8.638;2022-12-04T10:45:49;2.77;86.92
64034;SHT31;50280;49.864;8.638;2022-12-04T10:48:25;2.83;86.74
64034;SHT31;50280;49.864;8.638;2022-12-04T10:51:11;2.84;86.32
64034;SHT31;50280;49.864;8.638;2022-12-04T10:53:48;2.84;86.12
64034;SHT31;50280;49.864;8.638;2022-12-04T10:56:24;2.88;86.04
64034;SHT31;50280;49.864;8.638;2022-12-04T10:58:59;2.85;86.10
64034;SHT31;50280;49.864;8.638;2022-12-04T11:01:34;2.84;86.00
64034;SHT31;50280;49.864;8.638;2022-12-04T11:04:15;2.84;85.98
64034;SHT31;50280;49.864;8.638;2022-12-04T11:07:00;2.85;86.17
64034;SHT31;50280;49.864;8.638;2022-12-04T11:09:38;2.84;86.29
64034;SHT31;50280;49.864;8.638;2022-12-04T11:12:16;2.87;86.08
64034;SHT31;50280;49.864;8.638;2022-12-04T11:14:59;2.85;86.19
64034;SHT31;50280;49.864;8.638;2022-12-04T11:17:33;2.90;86.29
64034;SHT31;50280;49.864;8.638;2022-12-04T11:20:13;2.90;86.29
64034;SHT31;50280;49.864;8.638;2022-12-04T11:22:51;2.92;86.24
64034;SHT31;50280;49.864;8.638;2022-12-04T11:25:33;2.92;86.28
64034;SHT31;50280;49.864;8.638;2022-12-04T11:28:17;2.92;86.33
64034;SHT31;50280;49.864;8.638;2022-12-04T11:30:55;2.91;86.21
64034;SHT31;50280;49.864;8.638;2022-12-04T11:33:34;2.91;86.23
64034;SHT31;50280;49.864;8.638;2022-12-04T11:36:19;2.91;86.21
64034;SHT31;50280;49.864;8.638;2022-12-04T11:39:03;2.91;86.21
64034;SHT31;50280;49.864;8.638;2022-12-04T11:41:46;2.92;86.38
64034;SHT31;50280;49.864;8.638;2022-12-04T11:44:31;2.92;86.42
64034;SHT31;50280;49.864;8.638;2022-12-04T11:47:16;2.94;86.28
64034;SHT31;50280;49.864;8.638;2022-12-04T11:50:00;2.92;86.47
64034;SHT31;50280;49.864;8.638;2022-12-04T11:52:53;2.94;86.57
64034;SHT31;50280;49.864;8.638;2022-12-04T11:55:48;2.92;86.60
64034;SHT31;50280;49.864;8.638;2022-12-04T11:59:08;2.92;86.60
64034;SHT31;50280;49.864;8.638;2022-12-04T12:02:21;2.92;86.57
64034;SHT31;50280;49.864;8.638;2022-12-04T12:05:30;2.92;86.57
64034;SHT31;50280;49.864;8.638;2022-12-04T12:08:29;2.92;86.77
64034;SHT31;50280;49.864;8.638;2022-12-04T12:11:25;2.92;86.90
64034;SHT31;50280;49.864;8.638;2022-12-04T12:14:12;2.97;86.90
64034;SHT31;50280;49.864;8.638;2022-12-04T12:17:08;2.95;86.88
64034;SHT31;50280;49.864;8.638;2022-12-04T12:20:12;2.99;86.75
64034;SHT31;50280;49.864;8.638;2022-12-04T12:23:05;2.99;86.65
64034;SHT31;50280;49.864;8.638;2022-12-04T12:25:59;3.02;86.60
64034;SHT31;50280;49.864;8.638;2022-12-04T12:28:59;3.04;86.87
64034;SHT31;50280;49.864;8.638;2022-12-04T12:32:08;3.02;87.21
64034;SHT31;50280;49.864;8.638;2022-12-04T12:34:59;3.05;86.96
64034;SHT31;50280;49.864;8.638;2022-12-04T12:37:40;3.08;86.95
64034;SHT31;50280;49.864;8.638;2022-12-04T12:40:27;3.11;87.02
64034;SHT31;50280;49.864;8.638;2022-12-04T12:43:11;3.09;87.04
64034;SHT31;50280;49.864;8.638;2022-12-04T12:45:54;3.09;86.90
64034;SHT31;50280;49.864;8.638;2022-12-04T12:48:35;3.11;86.87
64034;SHT31;50280;49.864;8.638;2022-12-04T12:51:26;3.11;86.69
64034;SHT31;50280;49.864;8.638;2022-12-04T12:54:14;3.09;86.70
64034;SHT31;50280;49.864;8.638;2022-12-04T12:57:05;3.08;86.76
64034;SHT31;50280;49.864;8.638;2022-12-04T12:59:50;3.08;86.76
64034;SHT31;50280;49.864;8.638;2022-12-04T13:02:35;3.08;86.94
64034;SHT31;50280;49.864;8.638;2022-12-04T13:05:22;3.09;86.91
64034;SHT31;50280;49.864;8.638;2022-12-04T13:08:05;3.11;86.90
64034;SHT31;50280;49.864;8.638;2022-12-04T13:11:00;3.13;86.77
64034;SHT31;50280;49.864;8.638;2022-12-04T13:13:41;3.13;86.63
64034;SHT31;50280;49.864;8.638;2022-12-04T13:16:22;3.15;86.59
64034;SHT31;50280;49.864;8.638;2022-12-04T13:19:07;3.15;86.31
64034;SHT31;50280;49.864;8.638;2022-12-04T13:21:56;3.13;86.18
64034;SHT31;50280;49.864;8.638;2022-12-04T13:25:08;3.16;86.33
64034;SHT31;50280;49.864;8.638;2022-12-04T13:28:06;3.16;86.30
64034;SHT31;50280;49.864;8.638;2022-12-04T13:31:07;3.18;85.98
64034;SHT31;50280;49.864;8.638;2022-12-04T13:37:35;3.18;85.98
64034;SHT31;50280;49.864;8.638;2022-12-04T13:40:33;3.18;85.83
64034;SHT31;50280;49.864;8.638;2022-12-04T13:43:26;3.16;85.70
64034;SHT31;50280;49.864;8.638;2022-12-04T13:46:06;3.18;85.50
64034;SHT31;50280;49.864;8.638;2022-12-04T13:49:07;3.15;85.64
64034;SHT31;50280;49.864;8.638;2022-12-04T13:51:57;3.19;85.64
64034;SHT31;50280;49.864;8.638;2022-12-04T13:54:33;3.19;85.57
64034;SHT31;50280;49.864;8.638;2022-12-04T13:57:18;3.18;85.34
64034;SHT31;50280;49.864;8.638;2022-12-04T14:00:01;3.18;85.20
64034;SHT31;50280;49.864;8.638;2022-12-04T14:02:42;3.19;85.53
64034;SHT31;50280;49.864;8.638;2022-12-04T14:05:29;3.19;85.40
64034;SHT31;50280;49.864;8.638;2022-12-04T14:08:21;3.19;85.09
64034;SHT31;50280;49.864;8.638;2022-12-04T14:11:00;3.18;84.90
64034;SHT31;50280;49.864;8.638;2022-12-04T14:13:42;3.16;84.69
64034;SHT31;50280;49.864;8.638;2022-12-04T14:16:22;3.16;84.57
64034;SHT31;50280;49.864;8.638;2022-12-04T14:19:01;3.13;84.62
64034;SHT31;50280;49.864;8.638;2022-12-04T14:21:40;3.12;84.71
64034;SHT31;50280;49.864;8.638;2022-12-04T14:24:24;3.11;84.82
64034;SHT31;50280;49.864;8.638;2022-12-04T14:27:30;3.07;84.92
64034;SHT31;50280;49.864;8.638;2022-12-04T14:30:15;3.08;85.04
64034;SHT31;50280;49.864;8.638;2022-12-04T14:32:55;3.09;84.95
64034;SHT31;50280;49.864;8.638;2022-12-04T14:35:43;3.08;84.79
64034;SHT31;50280;49.864;8.638;2022-12-04T14:38:21;3.08;84.89
64034;SHT31;50280;49.864;8.638;2022-12-04T14:40:57;3.07;84.60
64034;SHT31;50280;49.864;8.638;2022-12-04T14:43:36;3.05;84.75
64034;SHT31;50280;49.864;8.638;2022-12-04T14:46:14;3.05;84.74
64034;SHT31;50280;49.864;8.638;2022-12-04T14:49:07;3.01;84.92
64034;SHT31;50280;49.864;8.638;2022-12-04T14:52:02;3.02;84.91
64034;SHT31;50280;49.864;8.638;2022-12-04T14:54:50;3.01;85.11
64034;SHT31;50280;49.864;8.638;2022-12-04T14:57:45;2.99;85.12
64034;SHT31;50280;49.864;8.638;2022-12-04T15:00:35;2.98;85.13
64034;SHT31;50280;49.864;8.638;2022-12-04T15:03:11;2.98;85.30
64034;SHT31;50280;49.864;8.638;2022-12-04T15:05:44;2.97;85.28
64034;SHT31;50280;49.864;8.638;2022-12-04T15:08:17;2.97;85.49
64034;SHT31;50280;49.864;8.638;2022-12-04T15:10:50;2.94;85.52
64034;SHT31;50280;49.864;8.638;2022-12-04T15:13:27;2.94;85.64
64034;SHT31;50280;49.864;8.638;2022-12-04T15:16:08;2.95;85.65
64034;SHT31;50280;49.864;8.638;2022-12-04T15:18:52;2.97;87.01
64034;SHT31;50280;49.864;8.638;2022-12-04T15:21:32;2.97;86.89
64034;SHT31;50280;49.864;8.638;2022-12-04T15:24:14;3.02;86.17
64034;SHT31;50280;49.864;8.638;2022-12-04T15:26:51;3.04;86.26
64034;SHT31;50280;49.864;8.638;2022-12-04T15:29:28;3.01;86.43
64034;SHT31;50280;49.864;8.638;2022-12-04T15:32:09;3.04;86.30
64034;SHT31;50280;49.864;8.638;2022-12-04T15:34:45;3.02;86.20
64034;SHT31;50280;49.864;8.638;2022-12-04T15:37:24;3.04;85.83
64034;SHT31;50280;49.864;8.638;2022-12-04T15:40:04;3.02;85.92
64034;SHT31;50280;49.864;8.638;2022-12-04T15:42:37;2.99;85.96
64034;SHT31;50280;49.864;8.638;2022-12-04T15:45:24;2.97;86.08
64034;SHT31;50280;49.864;8.638;2022-12-04T15:48:02;2.98;85.98
64034;SHT31;50280;49.864;8.638;2022-12-04T15:50:35;2.97;85.90
64034;SHT31;50280;49.864;8.638;2022-12-04T15:53:15;2.95;86.05
64034;SHT31;50280;49.864;8.638;2022-12-04T15:56:00;2.97;86.14
64034;SHT31;50280;49.864;8.638;2022-12-04T15:58:38;2.97;85.81
64034;SHT31;50280;49.864;8.638;2022-12-04T16:01:19;2.97;85.76
64034;SHT31;50280;49.864;8.638;2022-12-04T16:03:53;3.01;85.68
64034;SHT31;50280;49.864;8.638;2022-12-04T16:06:28;2.99;85.68
64034;SHT31;50280;49.864;8.638;2022-12-04T16:09:13;2.98;85.20
64034;SHT31;50280;49.864;8.638;2022-12-04T16:11:58;2.97;85.41
64034;SHT31;50280;49.864;8.638;2022-12-04T16:14:32;2.99;85.43
64034;SHT31;50280;49.864;8.638;2022-12-04T16:17:08;2.99;85.40
64034;SHT31;50280;49.864;8.638;2022-12-04T16:19:44;2.99;85.17
64034;SHT31;50280;49.864;8.638;2022-12-04T16:22:19;2.97;85.14
64034;SHT31;50280;49.864;8.638;2022-12-04T16:24:55;2.99;85.16
64034;SHT31;50280;49.864;8.638;2022-12-04T16:27:27;2.98;85.37
64034;SHT31;50280;49.864;8.638;2022-12-04T16:30:00;2.98;85.06
64034;SHT31;50280;49.864;8.638;2022-12-04T16:32:34;2.99;85.28
64034;SHT31;50280;49.864;8.638;2022-12-04T16:35:08;2.99;85.20
64034;SHT31;50280;49.864;8.638;2022-12-04T16:37:47;2.99;85.22
64034;SHT31;50280;49.864;8.638;2022-12-04T16:40:19;2.99;85.44
64034;SHT31;50280;49.864;8.638;2022-12-04T16:42:52;2.98;85.40
64034;SHT31;50280;49.864;8.638;2022-12-04T16:45:27;2.98;86.21
64034;SHT31;50280;49.864;8.638;2022-12-04T16:48:04;2.99;86.21
64034;SHT31;50280;49.864;8.638;2022-12-04T16:50:36;2.98;86.01
64034;SHT31;50280;49.864;8.638;2022-12-04T16:53:12;2.98;85.99
64034;SHT31;50280;49.864;8.638;2022-12-04T16:55:48;2.97;86.12
64034;SHT31;50280;49.864;8.638;2022-12-04T16:58:23;2.98;86.38
64034;SHT31;50280;49.864;8.638;2022-12-04T17:00:55;2.95;86.58
64034;SHT31;50280;49.864;8.638;2022-12-04T17:03:32;2.95;87.08
64034;SHT31;50280;49.864;8.638;2022-12-04T17:06:05;2.95;87.35